URWA 220830Z 08004MPS 030V160 CAVOK 35/10 Q1008 R27/010070 NOSIG RMK QFE757/1010
QNH:(hPa/inHg/mmHg)1008 / 29.77 / 756
QFE:(hPa/inHg/mmHg)1010 / 29.84 / 758
Temperature35
Dew Point10
Visibility> 10000
WeatherCAVOK
Cloud Cover
Transition Altitude3000 ft.
Transition LevelFL50
SQUAWK